sensor_id;sensor_type;location;lat;lon;timestamp;P1;durP1;ratioP1;P2;durP2;ratioP2
13985;SDS011;7067;51.832;8.296;2022-12-05T00:01:11;31.33;;;21.90;;
13985;SDS011;7067;51.832;8.296;2022-12-05T00:03:37;28.53;;;21.50;;
13985;SDS011;7067;51.832;8.296;2022-12-05T00:06:02;52.73;;;22.67;;
13985;SDS011;7067;51.832;8.296;2022-12-05T00:08:28;32.47;;;21.67;;
13985;SDS011;7067;51.832;8.296;2022-12-05T00:10:53;32.77;;;20.00;;
13985;SDS011;7067;51.832;8.296;2022-12-05T00:13:19;35.30;;;22.37;;
13985;SDS011;7067;51.832;8.296;2022-12-05T00:15:44;31.33;;;20.73;;
13985;SDS011;7067;51.832;8.296;2022-12-05T00:18:09;29.23;;;20.97;;
13985;SDS011;7067;51.832;8.296;2022-12-05T00:20:35;28.47;;;20.60;;
13985;SDS011;7067;51.832;8.296;2022-12-05T00:23:00;31.33;;;19.60;;
13985;SDS011;7067;51.832;8.296;2022-12-05T00:25:26;39.43;;;21.37;;
13985;SDS011;7067;51.832;8.296;2022-12-05T00:27:51;38.27;;;21.57;;
13985;SDS011;7067;51.832;8.296;2022-12-05T00:30:17;35.63;;;21.97;;
13985;SDS011;7067;51.832;8.296;2022-12-05T00:32:42;28.10;;;20.07;;
13985;SDS011;7067;51.832;8.296;2022-12-05T00:35:07;29.97;;;20.37;;
13985;SDS011;7067;51.832;8.296;2022-12-05T00:37:33;30.40;;;21.90;;
13985;SDS011;7067;51.832;8.296;2022-12-05T00:39:58;47.27;;;23.67;;
13985;SDS011;7067;51.832;8.296;2022-12-05T00:42:23;33.77;;;22.10;;
13985;SDS011;7067;51.832;8.296;2022-12-05T00:44:49;30.73;;;21.13;;
13985;SDS011;7067;51.832;8.296;2022-12-05T00:47:14;36.10;;;21.67;;
13985;SDS011;7067;51.832;8.296;2022-12-05T00:49:40;61.73;;;24.07;;
13985;SDS011;7067;51.832;8.296;2022-12-05T00:52:05;61.43;;;23.17;;
13985;SDS011;7067;51.832;8.296;2022-12-05T00:54:31;41.53;;;20.13;;
13985;SDS011;7067;51.832;8.296;2022-12-05T00:56:56;37.93;;;18.93;;
13985;SDS011;7067;51.832;8.296;2022-12-05T00:59:21;29.37;;;19.87;;
13985;SDS011;7067;51.832;8.296;2022-12-05T01:01:47;60.27;;;22.33;;
13985;SDS011;7067;51.832;8.296;2022-12-05T01:04:16;30.03;;;20.90;;
13985;SDS011;7067;51.832;8.296;2022-12-05T01:06:46;35.07;;;22.60;;
13985;SDS011;7067;51.832;8.296;2022-12-05T01:09:13;44.10;;;22.53;;
13985;SDS011;7067;51.832;8.296;2022-12-05T01:11:40;35.57;;;22.33;;
13985;SDS011;7067;51.832;8.296;2022-12-05T01:14:05;37.87;;;21.30;;
13985;SDS011;7067;51.832;8.296;2022-12-05T01:16:32;29.30;;;21.07;;
13985;SDS011;7067;51.832;8.296;2022-12-05T01:19:01;56.80;;;21.80;;
13985;SDS011;7067;51.832;8.296;2022-12-05T01:21:28;53.57;;;21.10;;
13985;SDS011;7067;51.832;8.296;2022-12-05T01:23:53;36.77;;;21.73;;
13985;SDS011;7067;51.832;8.296;2022-12-05T01:26:19;38.10;;;20.47;;
13985;SDS011;7067;51.832;8.296;2022-12-05T01:28:46;31.37;;;21.50;;
13985;SDS011;7067;51.832;8.296;2022-12-05T01:33:43;24.83;;;18.83;;
13985;SDS011;7067;51.832;8.296;2022-12-05T01:36:11;26.73;;;20.03;;
13985;SDS011;7067;51.832;8.296;2022-12-05T01:38:38;28.90;;;20.07;;
13985;SDS011;7067;51.832;8.296;2022-12-05T01:41:04;38.27;;;20.07;;
13985;SDS011;7067;51.832;8.296;2022-12-05T01:43:31;31.50;;;21.47;;
13985;SDS011;7067;51.832;8.296;2022-12-05T01:45:56;55.50;;;21.60;;
13985;SDS011;7067;51.832;8.296;2022-12-05T01:48:26;30.27;;;19.93;;
13985;SDS011;7067;51.832;8.296;2022-12-05T01:50:54;27.73;;;20.37;;
13985;SDS011;7067;51.832;8.296;2022-12-05T01:53:22;46.33;;;20.13;;
13985;SDS011;7067;51.832;8.296;2022-12-05T01:55:49;49.43;;;19.93;;
13985;SDS011;7067;51.832;8.296;2022-12-05T01:58:14;29.20;;;20.00;;
13985;SDS011;7067;51.832;8.296;2022-12-05T02:00:40;27.20;;;18.90;;
13985;SDS011;7067;51.832;8.296;2022-12-05T02:03:07;26.17;;;19.37;;
13985;SDS011;7067;51.832;8.296;2022-12-05T02:05:35;24.80;;;17.97;;
13985;SDS011;7067;51.832;8.296;2022-12-05T02:08:04;34.23;;;20.10;;
13985;SDS011;7067;51.832;8.296;2022-12-05T02:10:33;34.08;;;20.58;;
13985;SDS011;7067;51.832;8.296;2022-12-05T02:13:05;28.67;;;18.70;;
13985;SDS011;7067;51.832;8.296;2022-12-05T02:15:42;47.27;;;19.03;;
13985;SDS011;7067;51.832;8.296;2022-12-05T02:28:55;29.47;;;17.23;;
13985;SDS011;7067;51.832;8.296;2022-12-05T02:31:46;21.47;;;17.20;;
13985;SDS011;7067;51.832;8.296;2022-12-05T02:37:19;23.30;;;17.33;;
13985;SDS011;7067;51.832;8.296;2022-12-05T02:45:25;21.37;;;16.30;;
13985;SDS011;7067;51.832;8.296;2022-12-05T02:47:53;27.87;;;18.40;;
13985;SDS011;7067;51.832;8.296;2022-12-05T02:50:20;21.43;;;16.87;;
13985;SDS011;7067;51.832;8.296;2022-12-05T02:52:48;40.37;;;17.50;;
13985;SDS011;7067;51.832;8.296;2022-12-05T02:55:14;24.43;;;17.97;;
13985;SDS011;7067;51.832;8.296;2022-12-05T02:57:42;24.10;;;17.67;;
13985;SDS011;7067;51.832;8.296;2022-12-05T03:00:10;23.60;;;18.23;;
13985;SDS011;7067;51.832;8.296;2022-12-05T03:02:37;34.70;;;18.67;;
13985;SDS011;7067;51.832;8.296;2022-12-05T03:05:08;46.57;;;17.53;;
13985;SDS011;7067;51.832;8.296;2022-12-05T03:07:37;20.80;;;16.13;;
13985;SDS011;7067;51.832;8.296;2022-12-05T03:10:03;27.17;;;18.43;;
13985;SDS011;7067;51.832;8.296;2022-12-05T03:12:36;30.13;;;17.00;;
13985;SDS011;7067;51.832;8.296;2022-12-05T03:15:17;23.03;;;17.50;;
13985;SDS011;7067;51.832;8.296;2022-12-05T03:17:46;21.73;;;16.87;;
13985;SDS011;7067;51.832;8.296;2022-12-05T03:20:21;22.13;;;17.83;;
13985;SDS011;7067;51.832;8.296;2022-12-05T03:23:25;21.70;;;16.13;;
13985;SDS011;7067;51.832;8.296;2022-12-05T03:28:29;45.17;;;18.65;;
13985;SDS011;7067;51.832;8.296;2022-12-05T03:31:01;20.33;;;17.47;;
13985;SDS011;7067;51.832;8.296;2022-12-05T03:33:33;27.88;;;18.58;;
13985;SDS011;7067;51.832;8.296;2022-12-05T03:36:02;22.30;;;16.97;;
13985;SDS011;7067;51.832;8.296;2022-12-05T03:41:31;31.50;;;18.13;;
13985;SDS011;7067;51.832;8.296;2022-12-05T03:44:11;46.33;;;17.87;;
13985;SDS011;7067;51.832;8.296;2022-12-05T03:46:59;26.37;;;17.40;;
13985;SDS011;7067;51.832;8.296;2022-12-05T03:49:39;23.67;;;16.50;;
13985;SDS011;7067;51.832;8.296;2022-12-05T03:52:15;27.30;;;19.00;;
13985;SDS011;7067;51.832;8.296;2022-12-05T03:54:48;21.95;;;17.55;;
13985;SDS011;7067;51.832;8.296;2022-12-05T03:59:58;21.83;;;17.00;;
13985;SDS011;7067;51.832;8.296;2022-12-05T04:02:32;29.05;;;19.08;;
13985;SDS011;7067;51.832;8.296;2022-12-05T04:05:14;22.37;;;17.03;;
13985;SDS011;7067;51.832;8.296;2022-12-05T04:07:43;22.40;;;17.83;;
13985;SDS011;7067;51.832;8.296;2022-12-05T04:10:18;43.50;;;18.47;;
13985;SDS011;7067;51.832;8.296;2022-12-05T04:12:46;22.83;;;17.83;;
13985;SDS011;7067;51.832;8.296;2022-12-05T04:15:22;28.77;;;18.13;;
13985;SDS011;7067;51.832;8.296;2022-12-05T04:17:58;54.83;;;19.40;;
13985;SDS011;7067;51.832;8.296;2022-12-05T04:20:32;30.47;;;18.80;;
13985;SDS011;7067;51.832;8.296;2022-12-05T04:23:20;21.47;;;16.97;;
13985;SDS011;7067;51.832;8.296;2022-12-05T04:28:48;23.40;;;18.17;;
13985;SDS011;7067;51.832;8.296;2022-12-05T04:31:16;24.47;;;17.07;;
13985;SDS011;7067;51.832;8.296;2022-12-05T04:33:51;22.27;;;17.53;;
13985;SDS011;7067;51.832;8.296;2022-12-05T04:36:21;23.50;;;17.67;;
13985;SDS011;7067;51.832;8.296;2022-12-05T04:38:57;23.07;;;17.67;;
13985;SDS011;7067;51.832;8.296;2022-12-05T04:41:35;39.47;;;17.93;;
13985;SDS011;7067;51.832;8.296;2022-12-05T04:44:04;46.77;;;18.90;;
13985;SDS011;7067;51.832;8.296;2022-12-05T04:46:31;29.38;;;19.45;;
13985;SDS011;7067;51.832;8.296;2022-12-05T04:48:58;25.97;;;18.73;;
13985;SDS011;7067;51.832;8.296;2022-12-05T04:51:25;33.10;;;18.33;;
13985;SDS011;7067;51.832;8.296;2022-12-05T04:53:53;36.27;;;17.33;;
13985;SDS011;7067;51.832;8.296;2022-12-05T04:56:24;22.73;;;17.07;;
13985;SDS011;7067;51.832;8.296;2022-12-05T04:58:51;21.37;;;17.30;;
13985;SDS011;7067;51.832;8.296;2022-12-05T05:01:18;53.33;;;19.33;;
13985;SDS011;7067;51.832;8.296;2022-12-05T05:04:28;32.50;;;18.10;;
13985;SDS011;7067;51.832;8.296;2022-12-05T05:06:41;22.43;;;18.03;;
13985;SDS011;7067;51.832;8.296;2022-12-05T05:09:07;33.70;;;17.33;;
13985;SDS011;7067;51.832;8.296;2022-12-05T05:11:33;21.33;;;17.27;;
13985;SDS011;7067;51.832;8.296;2022-12-05T05:13:59;25.47;;;17.83;;
13985;SDS011;7067;51.832;8.296;2022-12-05T05:16:29;23.63;;;18.27;;
13985;SDS011;7067;51.832;8.296;2022-12-05T05:18:59;24.17;;;17.30;;
13985;SDS011;7067;51.832;8.296;2022-12-05T05:23:52;35.47;;;19.03;;
13985;SDS011;7067;51.832;8.296;2022-12-05T05:26:18;24.17;;;18.73;;
13985;SDS011;7067;51.832;8.296;2022-12-05T05:28:43;24.53;;;19.87;;
13985;SDS011;7067;51.832;8.296;2022-12-05T05:31:09;33.50;;;19.87;;
13985;SDS011;7067;51.832;8.296;2022-12-05T05:33:35;26.67;;;19.70;;
13985;SDS011;7067;51.832;8.296;2022-12-05T05:36:02;28.73;;;19.97;;
13985;SDS011;7067;51.832;8.296;2022-12-05T05:38:35;30.33;;;19.97;;
13985;SDS011;7067;51.832;8.296;2022-12-05T05:41:01;24.77;;;18.93;;
13985;SDS011;7067;51.832;8.296;2022-12-05T05:43:27;28.63;;;19.83;;
13985;SDS011;7067;51.832;8.296;2022-12-05T05:45:52;35.43;;;19.77;;
13985;SDS011;7067;51.832;8.296;2022-12-05T05:48:17;43.87;;;21.70;;
13985;SDS011;7067;51.832;8.296;2022-12-05T05:50:43;31.87;;;19.30;;
13985;SDS011;7067;51.832;8.296;2022-12-05T05:53:08;33.80;;;19.50;;
13985;SDS011;7067;51.832;8.296;2022-12-05T05:55:33;29.43;;;20.43;;
13985;SDS011;7067;51.832;8.296;2022-12-05T05:57:58;30.00;;;20.03;;
13985;SDS011;7067;51.832;8.296;2022-12-05T06:00:24;41.43;;;18.63;;
13985;SDS011;7067;51.832;8.296;2022-12-05T06:02:49;39.23;;;21.27;;
13985;SDS011;7067;51.832;8.296;2022-12-05T06:05:14;34.13;;;19.33;;
13985;SDS011;7067;51.832;8.296;2022-12-05T06:07:40;27.83;;;19.77;;
13985;SDS011;7067;51.832;8.296;2022-12-05T06:10:05;24.27;;;19.20;;
13985;SDS011;7067;51.832;8.296;2022-12-05T06:12:31;28.00;;;20.40;;
13985;SDS011;7067;51.832;8.296;2022-12-05T06:14:56;31.77;;;19.20;;
13985;SDS011;7067;51.832;8.296;2022-12-05T06:17:22;47.73;;;21.23;;
13985;SDS011;7067;51.832;8.296;2022-12-05T06:19:47;27.87;;;20.97;;
13985;SDS011;7067;51.832;8.296;2022-12-05T06:22:12;33.47;;;21.70;;
13985;SDS011;7067;51.832;8.296;2022-12-05T06:24:38;33.07;;;21.17;;
13985;SDS011;7067;51.832;8.296;2022-12-05T06:27:03;36.40;;;22.63;;
13985;SDS011;7067;51.832;8.296;2022-12-05T06:29:29;35.00;;;19.97;;
13985;SDS011;7067;51.832;8.296;2022-12-05T06:31:54;27.90;;;20.43;;
13985;SDS011;7067;51.832;8.296;2022-12-05T06:34:19;26.37;;;21.10;;
13985;SDS011;7067;51.832;8.296;2022-12-05T06:36:45;41.87;;;23.67;;
13985;SDS011;7067;51.832;8.296;2022-12-05T06:39:10;29.30;;;20.60;;
13985;SDS011;7067;51.832;8.296;2022-12-05T06:41:35;33.00;;;22.10;;
13985;SDS011;7067;51.832;8.296;2022-12-05T06:44:01;34.47;;;21.43;;
13985;SDS011;7067;51.832;8.296;2022-12-05T06:46:26;47.90;;;23.30;;
13985;SDS011;7067;51.832;8.296;2022-12-05T06:48:52;33.43;;;22.60;;
13985;SDS011;7067;51.832;8.296;2022-12-05T06:51:17;30.70;;;21.53;;
13985;SDS011;7067;51.832;8.296;2022-12-05T06:53:43;29.77;;;21.47;;
13985;SDS011;7067;51.832;8.296;2022-12-05T06:56:11;71.90;;;24.67;;
13985;SDS011;7067;51.832;8.296;2022-12-05T06:58:40;29.17;;;20.27;;
13985;SDS011;7067;51.832;8.296;2022-12-05T07:01:13;67.87;;;23.23;;
13985;SDS011;7067;51.832;8.296;2022-12-05T07:03:58;32.17;;;22.80;;
13985;SDS011;7067;51.832;8.296;2022-12-05T07:06:24;40.73;;;22.50;;
13985;SDS011;7067;51.832;8.296;2022-12-05T07:08:50;48.60;;;22.70;;
13985;SDS011;7067;51.832;8.296;2022-12-05T07:11:15;35.13;;;21.67;;
13985;SDS011;7067;51.832;8.296;2022-12-05T07:13:41;33.27;;;22.17;;
13985;SDS011;7067;51.832;8.296;2022-12-05T07:16:06;34.77;;;22.87;;
13985;SDS011;7067;51.832;8.296;2022-12-05T07:18:32;28.57;;;20.37;;
13985;SDS011;7067;51.832;8.296;2022-12-05T07:20:59;31.03;;;21.57;;
13985;SDS011;7067;51.832;8.296;2022-12-05T07:23:32;28.80;;;20.93;;
13985;SDS011;7067;51.832;8.296;2022-12-05T07:25:57;29.17;;;20.83;;
13985;SDS011;7067;51.832;8.296;2022-12-05T07:28:23;26.70;;;20.13;;
13985;SDS011;7067;51.832;8.296;2022-12-05T07:30:57;27.77;;;21.30;;
13985;SDS011;7067;51.832;8.296;2022-12-05T07:33:23;45.63;;;22.80;;
13985;SDS011;7067;51.832;8.296;2022-12-05T07:35:49;30.43;;;20.83;;
13985;SDS011;7067;51.832;8.296;2022-12-05T07:38:14;46.73;;;23.13;;
13985;SDS011;7067;51.832;8.296;2022-12-05T07:40:39;31.93;;;21.83;;
13985;SDS011;7067;51.832;8.296;2022-12-05T07:43:05;28.63;;;21.37;;
13985;SDS011;7067;51.832;8.296;2022-12-05T07:45:30;29.73;;;21.37;;
13985;SDS011;7067;51.832;8.296;2022-12-05T07:47:58;32.97;;;21.03;;
13985;SDS011;7067;51.832;8.296;2022-12-05T07:50:23;36.40;;;22.20;;
13985;SDS011;7067;51.832;8.296;2022-12-05T07:52:48;33.03;;;21.40;;
13985;SDS011;7067;51.832;8.296;2022-12-05T07:55:14;29.57;;;19.90;;
13985;SDS011;7067;51.832;8.296;2022-12-05T07:57:39;41.57;;;23.20;;
13985;SDS011;7067;51.832;8.296;2022-12-05T08:00:05;37.43;;;23.37;;
13985;SDS011;7067;51.832;8.296;2022-12-05T08:02:31;27.23;;;20.43;;
13985;SDS011;7067;51.832;8.296;2022-12-05T08:04:56;31.63;;;21.70;;
13985;SDS011;7067;51.832;8.296;2022-12-05T08:07:24;28.33;;;21.13;;
13985;SDS011;7067;51.832;8.296;2022-12-05T08:09:49;32.23;;;22.23;;
13985;SDS011;7067;51.832;8.296;2022-12-05T08:12:15;30.97;;;22.43;;
13985;SDS011;7067;51.832;8.296;2022-12-05T08:14:40;70.40;;;25.70;;
13985;SDS011;7067;51.832;8.296;2022-12-05T08:17:05;50.37;;;24.30;;
13985;SDS011;7067;51.832;8.296;2022-12-05T08:19:31;31.93;;;23.13;;
13985;SDS011;7067;51.832;8.296;2022-12-05T08:21:56;27.67;;;20.10;;
13985;SDS011;7067;51.832;8.296;2022-12-05T08:24:21;29.63;;;21.93;;
13985;SDS011;7067;51.832;8.296;2022-12-05T08:26:48;27.97;;;21.47;;
13985;SDS011;7067;51.832;8.296;2022-12-05T08:29:14;31.03;;;21.83;;
13985;SDS011;7067;51.832;8.296;2022-12-05T08:31:40;39.93;;;23.13;;
13985;SDS011;7067;51.832;8.296;2022-12-05T08:34:13;40.43;;;21.93;;
13985;SDS011;7067;51.832;8.296;2022-12-05T08:36:39;31.00;;;22.07;;
13985;SDS011;7067;51.832;8.296;2022-12-05T08:39:05;28.37;;;20.97;;
13985;SDS011;7067;51.832;8.296;2022-12-05T08:41:32;41.43;;;21.57;;
13985;SDS011;7067;51.832;8.296;2022-12-05T08:43:58;29.43;;;21.80;;
13985;SDS011;7067;51.832;8.296;2022-12-05T08:46:27;24.33;;;19.27;;
13985;SDS011;7067;51.832;8.296;2022-12-05T08:48:52;37.10;;;20.37;;
13985;SDS011;7067;51.832;8.296;2022-12-05T08:51:18;24.90;;;19.87;;
13985;SDS011;7067;51.832;8.296;2022-12-05T08:53:43;28.53;;;21.03;;
13985;SDS011;7067;51.832;8.296;2022-12-05T08:56:09;30.47;;;21.83;;
13985;SDS011;7067;51.832;8.296;2022-12-05T08:58:35;31.07;;;21.73;;
13985;SDS011;7067;51.832;8.296;2022-12-05T09:03:32;29.97;;;22.60;;
13985;SDS011;7067;51.832;8.296;2022-12-05T09:08:43;27.73;;;21.57;;
13985;SDS011;7067;51.832;8.296;2022-12-05T09:11:16;29.00;;;22.43;;
13985;SDS011;7067;51.832;8.296;2022-12-05T09:13:43;29.60;;;21.83;;
13985;SDS011;7067;51.832;8.296;2022-12-05T09:16:19;31.03;;;21.67;;
13985;SDS011;7067;51.832;8.296;2022-12-05T09:18:46;32.03;;;23.07;;
13985;SDS011;7067;51.832;8.296;2022-12-05T09:21:22;31.00;;;22.40;;
13985;SDS011;7067;51.832;8.296;2022-12-05T09:23:49;27.00;;;20.73;;
13985;SDS011;7067;51.832;8.296;2022-12-05T09:26:15;28.73;;;22.17;;
13985;SDS011;7067;51.832;8.296;2022-12-05T09:28:42;31.13;;;21.27;;
13985;SDS011;7067;51.832;8.296;2022-12-05T09:31:12;30.03;;;21.33;;
13985;SDS011;7067;51.832;8.296;2022-12-05T09:33:40;35.60;;;21.90;;
13985;SDS011;7067;51.832;8.296;2022-12-05T09:38:32;40.83;;;21.70;;
13985;SDS011;7067;51.832;8.296;2022-12-05T09:49:50;32.90;;;24.50;;
13985;SDS011;7067;51.832;8.296;2022-12-05T09:52:36;32.45;;;23.63;;
13985;SDS011;7067;51.832;8.296;2022-12-05T09:55:21;34.53;;;26.80;;
13985;SDS011;7067;51.832;8.296;2022-12-05T09:57:56;42.20;;;25.70;;
13985;SDS011;7067;51.832;8.296;2022-12-05T10:00:23;24.67;;;20.07;;
13985;SDS011;7067;51.832;8.296;2022-12-05T10:02:58;33.90;;;21.07;;
13985;SDS011;7067;51.832;8.296;2022-12-05T10:05:46;33.03;;;21.33;;
13985;SDS011;7067;51.832;8.296;2022-12-05T10:08:17;32.90;;;21.07;;
13985;SDS011;7067;51.832;8.296;2022-12-05T10:16:11;28.60;;;21.07;;
13985;SDS011;7067;51.832;8.296;2022-12-05T10:18:46;27.73;;;19.93;;
13985;SDS011;7067;51.832;8.296;2022-12-05T10:21:54;36.73;;;21.17;;
13985;SDS011;7067;51.832;8.296;2022-12-05T10:24:28;35.40;;;21.57;;
13985;SDS011;7067;51.832;8.296;2022-12-05T10:26:57;35.83;;;22.17;;
13985;SDS011;7067;51.832;8.296;2022-12-05T10:29:29;53.70;;;23.20;;
13985;SDS011;7067;51.832;8.296;2022-12-05T10:32:03;43.53;;;22.40;;
13985;SDS011;7067;51.832;8.296;2022-12-05T10:34:39;31.73;;;23.07;;
13985;SDS011;7067;51.832;8.296;2022-12-05T10:39:38;40.40;;;27.30;;
13985;SDS011;7067;51.832;8.296;2022-12-05T10:42:04;49.20;;;27.17;;
13985;SDS011;7067;51.832;8.296;2022-12-05T10:44:31;39.97;;;29.10;;
13985;SDS011;7067;51.832;8.296;2022-12-05T10:46:57;47.07;;;29.77;;
13985;SDS011;7067;51.832;8.296;2022-12-05T10:49:23;46.83;;;27.17;;
13985;SDS011;7067;51.832;8.296;2022-12-05T10:51:49;43.93;;;28.57;;
13985;SDS011;7067;51.832;8.296;2022-12-05T10:54:16;39.10;;;27.77;;
13985;SDS011;7067;51.832;8.296;2022-12-05T10:56:45;33.20;;;26.53;;
13985;SDS011;7067;51.832;8.296;2022-12-05T10:59:14;36.40;;;25.87;;
13985;SDS011;7067;51.832;8.296;2022-12-05T11:01:51;34.17;;;25.37;;
13985;SDS011;7067;51.832;8.296;2022-12-05T11:06:58;31.10;;;22.47;;
13985;SDS011;7067;51.832;8.296;2022-12-05T11:09:32;28.80;;;21.63;;
13985;SDS011;7067;51.832;8.296;2022-12-05T11:17:28;31.80;;;23.77;;
13985;SDS011;7067;51.832;8.296;2022-12-05T11:19:55;27.70;;;24.70;;
13985;SDS011;7067;51.832;8.296;2022-12-05T11:22:28;35.60;;;24.20;;
13985;SDS011;7067;51.832;8.296;2022-12-05T11:24:55;34.47;;;21.67;;
13985;SDS011;7067;51.832;8.296;2022-12-05T11:27:24;35.47;;;20.63;;
13985;SDS011;7067;51.832;8.296;2022-12-05T11:32:23;28.43;;;19.43;;
13985;SDS011;7067;51.832;8.296;2022-12-05T11:43:01;20.77;;;17.47;;
13985;SDS011;7067;51.832;8.296;2022-12-05T11:48:05;25.40;;;19.27;;
13985;SDS011;7067;51.832;8.296;2022-12-05T12:10:11;17.60;;;15.70;;
13985;SDS011;7067;51.832;8.296;2022-12-05T12:15:39;21.07;;;16.77;;
13985;SDS011;7067;51.832;8.296;2022-12-05T12:29:03;18.97;;;16.47;;
13985;SDS011;7067;51.832;8.296;2022-12-05T12:31:36;17.23;;;14.13;;
13985;SDS011;7067;51.832;8.296;2022-12-05T12:39:41;17.73;;;13.87;;
13985;SDS011;7067;51.832;8.296;2022-12-05T12:42:19;15.30;;;13.60;;
13985;SDS011;7067;51.832;8.296;2022-12-05T12:50:10;24.40;;;14.43;;
13985;SDS011;7067;51.832;8.296;2022-12-05T12:55:30;15.20;;;13.60;;
13985;SDS011;7067;51.832;8.296;2022-12-05T13:01:00;35.57;;;16.13;;
13985;SDS011;7067;51.832;8.296;2022-12-05T13:06:20;19.00;;;12.43;;
13985;SDS011;7067;51.832;8.296;2022-12-05T13:08:49;31.17;;;12.20;;
13985;SDS011;7067;51.832;8.296;2022-12-05T13:11:17;32.70;;;12.63;;
13985;SDS011;7067;51.832;8.296;2022-12-05T13:13:48;25.40;;;13.13;;
13985;SDS011;7067;51.832;8.296;2022-12-05T13:16:24;13.77;;;12.00;;
13985;SDS011;7067;51.832;8.296;2022-12-05T13:22:07;16.40;;;12.77;;
13985;SDS011;7067;51.832;8.296;2022-12-05T13:24:33;14.50;;;12.53;;
13985;SDS011;7067;51.832;8.296;2022-12-05T13:27:05;12.07;;;11.07;;
13985;SDS011;7067;51.832;8.296;2022-12-05T13:29:36;16.43;;;10.93;;
13985;SDS011;7067;51.832;8.296;2022-12-05T13:34:48;32.30;;;17.03;;
13985;SDS011;7067;51.832;8.296;2022-12-05T13:37:24;16.17;;;14.60;;
13985;SDS011;7067;51.832;8.296;2022-12-05T13:43:23;26.60;;;14.03;;
13985;SDS011;7067;51.832;8.296;2022-12-05T13:46:11;14.73;;;13.13;;
13985;SDS011;7067;51.832;8.296;2022-12-05T13:48:39;11.50;;;10.57;;
13985;SDS011;7067;51.832;8.296;2022-12-05T13:51:07;12.20;;;11.13;;
13985;SDS011;7067;51.832;8.296;2022-12-05T13:53:40;15.65;;;10.70;;
13985;SDS011;7067;51.832;8.296;2022-12-05T14:09:26;13.90;;;12.63;;
13985;SDS011;7067;51.832;8.296;2022-12-05T14:17:32;11.73;;;10.83;;
13985;SDS011;7067;51.832;8.296;2022-12-05T14:20:24;10.77;;;9.87;;
13985;SDS011;7067;51.832;8.296;2022-12-05T14:31:37;14.67;;;13.20;;
13985;SDS011;7067;51.832;8.296;2022-12-05T14:36:51;15.20;;;13.63;;
13985;SDS011;7067;51.832;8.296;2022-12-05T14:39:32;19.42;;;16.45;;
13985;SDS011;7067;51.832;8.296;2022-12-05T14:42:01;13.87;;;12.40;;
13985;SDS011;7067;51.832;8.296;2022-12-05T14:44:28;19.20;;;14.77;;
13985;SDS011;7067;51.832;8.296;2022-12-05T14:46:57;14.20;;;12.90;;
13985;SDS011;7067;51.832;8.296;2022-12-05T14:55:42;22.37;;;15.43;;
13985;SDS011;7067;51.832;8.296;2022-12-05T14:58:18;16.80;;;15.10;;
13985;SDS011;7067;51.832;8.296;2022-12-05T15:03:23;24.67;;;18.13;;
13985;SDS011;7067;51.832;8.296;2022-12-05T15:05:53;20.77;;;18.60;;
13985;SDS011;7067;51.832;8.296;2022-12-05T15:08:19;27.10;;;18.50;;
13985;SDS011;7067;51.832;8.296;2022-12-05T15:10:44;19.70;;;17.70;;
13985;SDS011;7067;51.832;8.296;2022-12-05T15:13:14;17.60;;;16.00;;
13985;SDS011;7067;51.832;8.296;2022-12-05T15:15:43;15.57;;;14.07;;
13985;SDS011;7067;51.832;8.296;2022-12-05T15:18:14;15.93;;;14.23;;
13985;SDS011;7067;51.832;8.296;2022-12-05T15:21:00;15.70;;;14.05;;
13985;SDS011;7067;51.832;8.296;2022-12-05T15:23:47;18.50;;;15.10;;
13985;SDS011;7067;51.832;8.296;2022-12-05T15:31:34;16.37;;;14.70;;
13985;SDS011;7067;51.832;8.296;2022-12-05T15:34:06;15.63;;;14.17;;
13985;SDS011;7067;51.832;8.296;2022-12-05T15:36:43;14.52;;;13.10;;
13985;SDS011;7067;51.832;8.296;2022-12-05T15:39:20;19.98;;;14.88;;
13985;SDS011;7067;51.832;8.296;2022-12-05T15:41:49;15.70;;;14.20;;
13985;SDS011;7067;51.832;8.296;2022-12-05T15:44:16;28.53;;;16.87;;
13985;SDS011;7067;51.832;8.296;2022-12-05T15:46:41;17.20;;;14.67;;
13985;SDS011;7067;51.832;8.296;2022-12-05T15:49:19;29.97;;;14.60;;
13985;SDS011;7067;51.832;8.296;2022-12-05T15:51:47;18.17;;;15.75;;
13985;SDS011;7067;51.832;8.296;2022-12-05T15:54:19;34.47;;;16.37;;
13985;SDS011;7067;51.832;8.296;2022-12-05T15:59:27;28.23;;;21.50;;
13985;SDS011;7067;51.832;8.296;2022-12-05T16:02:02;31.63;;;22.67;;
13985;SDS011;7067;51.832;8.296;2022-12-05T16:04:35;21.67;;;18.33;;
13985;SDS011;7067;51.832;8.296;2022-12-05T16:07:07;20.37;;;16.73;;
13985;SDS011;7067;51.832;8.296;2022-12-05T16:09:36;18.83;;;16.30;;
13985;SDS011;7067;51.832;8.296;2022-12-05T16:12:05;20.70;;;15.03;;
13985;SDS011;7067;51.832;8.296;2022-12-05T16:14:41;19.20;;;17.40;;
13985;SDS011;7067;51.832;8.296;2022-12-05T16:17:07;17.53;;;15.93;;
13985;SDS011;7067;51.832;8.296;2022-12-05T16:19:38;16.60;;;15.17;;
13985;SDS011;7067;51.832;8.296;2022-12-05T16:22:07;15.77;;;14.27;;
13985;SDS011;7067;51.832;8.296;2022-12-05T16:25:12;17.43;;;15.83;;
13985;SDS011;7067;51.832;8.296;2022-12-05T16:27:35;14.83;;;13.63;;
13985;SDS011;7067;51.832;8.296;2022-12-05T16:32:39;14.40;;;12.93;;
13985;SDS011;7067;51.832;8.296;2022-12-05T16:43:17;23.97;;;18.73;;
13985;SDS011;7067;51.832;8.296;2022-12-05T16:48:37;15.33;;;14.03;;
13985;SDS011;7067;51.832;8.296;2022-12-05T16:53:44;14.17;;;12.90;;
13985;SDS011;7067;51.832;8.296;2022-12-05T16:56:13;24.13;;;12.87;;
13985;SDS011;7067;51.832;8.296;2022-12-05T16:58:40;14.67;;;13.13;;
13985;SDS011;7067;51.832;8.296;2022-12-05T17:01:06;13.07;;;11.87;;
13985;SDS011;7067;51.832;8.296;2022-12-05T17:03:32;12.80;;;11.67;;
13985;SDS011;7067;51.832;8.296;2022-12-05T17:05:58;14.23;;;13.00;;
13985;SDS011;7067;51.832;8.296;2022-12-05T17:08:24;16.27;;;14.13;;
13985;SDS011;7067;51.832;8.296;2022-12-05T17:10:50;17.80;;;14.30;;
13985;SDS011;7067;51.832;8.296;2022-12-05T17:13:16;14.70;;;13.47;;
13985;SDS011;7067;51.832;8.296;2022-12-05T17:15:42;13.73;;;12.73;;
13985;SDS011;7067;51.832;8.296;2022-12-05T17:18:11;15.93;;;14.33;;
13985;SDS011;7067;51.832;8.296;2022-12-05T17:20:38;16.58;;;14.88;;
13985;SDS011;7067;51.832;8.296;2022-12-05T17:23:05;15.87;;;14.03;;
13985;SDS011;7067;51.832;8.296;2022-12-05T17:25:33;27.20;;;15.63;;
13985;SDS011;7067;51.832;8.296;2022-12-05T17:28:00;15.57;;;14.13;;
13985;SDS011;7067;51.832;8.296;2022-12-05T17:30:26;14.17;;;13.13;;
13985;SDS011;7067;51.832;8.296;2022-12-05T17:32:51;14.23;;;12.87;;
13985;SDS011;7067;51.832;8.296;2022-12-05T17:35:17;21.47;;;13.40;;
13985;SDS011;7067;51.832;8.296;2022-12-05T17:37:44;14.60;;;13.33;;
13985;SDS011;7067;51.832;8.296;2022-12-05T17:40:10;15.33;;;13.37;;
13985;SDS011;7067;51.832;8.296;2022-12-05T17:42:37;15.80;;;12.70;;
13985;SDS011;7067;51.832;8.296;2022-12-05T17:45:02;13.67;;;12.53;;
13985;SDS011;7067;51.832;8.296;2022-12-05T17:47:30;24.13;;;13.77;;
13985;SDS011;7067;51.832;8.296;2022-12-05T17:49:55;33.33;;;18.47;;
13985;SDS011;7067;51.832;8.296;2022-12-05T17:52:20;20.93;;;16.60;;
13985;SDS011;7067;51.832;8.296;2022-12-05T17:54:46;23.77;;;15.17;;
13985;SDS011;7067;51.832;8.296;2022-12-05T17:57:11;13.60;;;11.87;;
13985;SDS011;7067;51.832;8.296;2022-12-05T17:59:36;14.17;;;13.07;;
13985;SDS011;7067;51.832;8.296;2022-12-05T18:02:02;13.53;;;12.43;;
13985;SDS011;7067;51.832;8.296;2022-12-05T18:04:27;17.90;;;13.17;;
13985;SDS011;7067;51.832;8.296;2022-12-05T18:06:53;15.53;;;13.97;;
13985;SDS011;7067;51.832;8.296;2022-12-05T18:09:18;15.07;;;13.77;;
13985;SDS011;7067;51.832;8.296;2022-12-05T18:11:43;15.00;;;13.70;;